Terminal Aerodrome Forecast
Issued by NWS

Home | Current Version | Previous Version | Text Only | Print | Product List | Glossary On
Versions: 1 2 3 4 5 6 7 8 9 10 11 12 13 14 15 16 17 18
000
FTUS46 KSEW 212300
TAFHQM
TAF
KHQM 212334Z 2200/2224 25008KT P6SM SKC
     FM220700 33005KT P6SM BKN035
     FM221000 19004KT P6SM OVC020
      TEMPO 2212/2215 3SM BR BKN010
     FM221800 23008KT P6SM BKN025
     FM222000 24010KT P6SM SCT025 SCT250=

USA.gov is the U.S. government's official web portal to all federal, state and local government web resources and services.